Menno, South Dakota
Current Conditions -  °F | °C
As of 11:35 PM on Sunday 21 Dec 2014 (Local Time) from KYKN Reporting Station
Overcast Overcast  
Wind Chill:   Ceiling: 1200
Heat Index:   Visibility: 10mi
Dew Point:   Wind: 12mph
Humidity: 93%   Direction: 170°S
Pressure: 29.54"   Gusts: NA
Location:  43.24°N, 97.58°W
Report Text: KYKN 220535Z AUTO 17010KT 10SM OVC012 04/03 A2954 RMK AO1
Loading
Personal Weather Stations






























Interactive Weather Map New forecast layout! Learn more

10-Day Weather Forecast

Advertisements
Track Severe Weather on mobile